createdAt,value
2024-02-15T00:01:49.896Z,101131.43
2024-02-15T00:04:23.886Z,101130.19
2024-02-15T00:06:58.161Z,101135.84
2024-02-15T00:09:31.556Z,101135.58
2024-02-15T00:14:41.403Z,101129.45
2024-02-15T00:17:15.245Z,101128.19
2024-02-15T00:19:49.634Z,101128.72
2024-02-15T00:22:23.921Z,101131.06
2024-02-15T00:24:57.630Z,101131.60
2024-02-15T00:27:31.663Z,101132.25
2024-02-15T00:30:09.045Z,101134.44
2024-02-15T00:32:43.684Z,101134.86
2024-02-15T00:35:19.802Z,101132.75
2024-02-15T00:37:54.245Z,101133.13
2024-02-15T00:40:28.074Z,101137.12
2024-02-15T00:43:02.133Z,101127.14
2024-02-15T00:45:36.731Z,101130.30
2024-02-15T00:48:12.471Z,101132.48
2024-02-15T00:50:47.145Z,101132.84
2024-02-15T00:53:21.900Z,101130.03
2024-02-15T00:55:56.283Z,101133.32
2024-02-15T00:58:30.334Z,101133.69
2024-02-15T01:01:04.254Z,101139.20
2024-02-15T01:03:40.104Z,101147.47
2024-02-15T01:06:14.142Z,101140.67
2024-02-15T01:08:48.626Z,101143.55
2024-02-15T01:11:23.568Z,101139.51
2024-02-15T01:13:57.441Z,101146.82
2024-02-15T01:16:32.039Z,101144.56
2024-02-15T01:19:06.938Z,101143.14
2024-02-15T01:21:41.794Z,101144.22
2024-02-15T01:24:16.256Z,101144.61
2024-02-15T01:26:51.628Z,101147.34
2024-02-15T01:29:26.941Z,101144.15
2024-02-15T01:32:01.576Z,101149.51
2024-02-15T01:34:37.054Z,101148.94
2024-02-15T01:37:10.956Z,101150.96
2024-02-15T01:39:44.341Z,101145.96
2024-02-15T01:42:18.535Z,101157.31
2024-02-15T01:44:54.236Z,101159.33
2024-02-15T01:47:29.177Z,101153.38
2024-02-15T01:50:04.140Z,101150.89
2024-02-15T01:52:40.398Z,101157.09
2024-02-15T01:55:15.952Z,101163.54
2024-02-15T01:57:51.166Z,101159.50
2024-02-15T02:00:25.864Z,101162.23
2024-02-15T02:03:04.581Z,101164.14
2024-02-15T02:05:39.117Z,101165.23
2024-02-15T02:08:13.823Z,101164.38
2024-02-15T02:10:48.033Z,101169.77
2024-02-15T02:13:22.003Z,101170.02
2024-02-15T02:15:57.200Z,101175.26
2024-02-15T02:18:31.921Z,101176.31
2024-02-15T02:21:07.361Z,101181.56
2024-02-15T02:23:43.140Z,101179.89
2024-02-15T02:26:18.050Z,101172.16
2024-02-15T02:28:54.396Z,101179.08
2024-02-15T02:31:28.343Z,101173.13
2024-02-15T02:34:02.909Z,101179.42
2024-02-15T02:36:37.654Z,101176.94
2024-02-15T02:39:12.042Z,101174.31
2024-02-15T02:41:46.684Z,101176.09
2024-02-15T02:44:20.567Z,101179.80
2024-02-15T02:46:54.609Z,101177.29
2024-02-15T02:49:28.580Z,101185.29
2024-02-15T02:52:03.064Z,101181.95
2024-02-15T02:54:36.821Z,101180.15
2024-02-15T02:57:13.108Z,101179.44
2024-02-15T02:59:48.564Z,101180.39
2024-02-15T03:02:23.845Z,101183.14
2024-02-15T03:05:01.588Z,101187.54
2024-02-15T03:07:37.595Z,101187.54
2024-02-15T03:10:15.649Z,101179.20
2024-02-15T03:12:50.368Z,101173.14
2024-02-15T03:15:24.560Z,101166.34
2024-02-15T03:17:58.897Z,101169.09
2024-02-15T03:20:33.445Z,101165.05
2024-02-15T03:23:08.683Z,101166.00
2024-02-15T03:25:42.307Z,101163.61
2024-02-15T03:28:16.743Z,101166.34
2024-02-15T03:30:51.442Z,101160.62
2024-02-15T03:33:28.039Z,101162.52
2024-02-15T03:36:02.344Z,101162.77
2024-02-15T03:38:36.627Z,101161.23
2024-02-15T03:41:11.312Z,101165.14
2024-02-15T03:43:45.103Z,101163.47
2024-02-15T03:46:19.377Z,101167.17
2024-02-15T03:48:54.137Z,101167.41
2024-02-15T03:51:30.321Z,101164.17
2024-02-15T03:54:05.376Z,101158.36
2024-02-15T03:56:39.481Z,101168.94
2024-02-15T03:59:15.002Z,101164.88
2024-02-15T04:01:48.932Z,101168.45
2024-02-15T04:04:23.714Z,101169.63
2024-02-15T04:06:57.937Z,101175.00
2024-02-15T04:09:31.749Z,101176.19
2024-02-15T04:12:06.213Z,101171.18
2024-02-15T04:14:40.758Z,101180.09
2024-02-15T04:17:18.272Z,101175.93
2024-02-15T04:19:55.397Z,101176.25
2024-02-15T04:22:29.964Z,101179.95
2024-02-15T04:25:04.096Z,101182.80
2024-02-15T04:27:39.172Z,101187.31
2024-02-15T04:30:17.274Z,101189.22
2024-02-15T04:32:53.777Z,101187.64
2024-02-15T04:35:29.144Z,101188.72
2024-02-15T04:38:05.138Z,101189.77
2024-02-15T04:40:40.889Z,101197.03
2024-02-15T04:43:17.104Z,101192.84
2024-02-15T04:45:52.750Z,101192.97
2024-02-15T04:48:27.275Z,101193.06
2024-02-15T04:51:02.675Z,101191.52
2024-02-15T04:53:37.729Z,101193.29
2024-02-15T04:56:15.492Z,101199.47
2024-02-15T04:58:49.628Z,101203.88
2024-02-15T05:01:23.956Z,101200.42
2024-02-15T05:03:58.336Z,101203.03
2024-02-15T05:06:33.610Z,101196.03
2024-02-15T05:09:09.004Z,101202.94
2024-02-15T05:11:47.827Z,101203.03
2024-02-15T05:14:24.538Z,101207.32
2024-02-15T05:16:59.304Z,101204.61
2024-02-15T05:19:34.008Z,101212.33
2024-02-15T05:22:08.119Z,101220.09
2024-02-15T05:24:41.622Z,101220.91
2024-02-15T05:27:16.204Z,101226.98
2024-02-15T05:29:54.137Z,101229.70
2024-02-15T05:32:28.700Z,101233.17
2024-02-15T05:35:03.428Z,101241.75
2024-02-15T05:37:38.125Z,101255.66
2024-02-15T05:40:17.067Z,101247.80
2024-02-15T05:42:51.856Z,101253.03
2024-02-15T05:45:38.990Z,101266.12
2024-02-15T05:48:14.995Z,101255.78
2024-02-15T05:50:48.602Z,101260.06
2024-02-15T05:53:23.381Z,101275.77
2024-02-15T05:55:59.042Z,101273.02
2024-02-15T05:58:33.609Z,101263.28
2024-02-15T06:01:13.404Z,101277.00
2024-02-15T06:03:49.784Z,101269.87
2024-02-15T06:06:27.962Z,101273.93
2024-02-15T06:09:04.258Z,101267.63
2024-02-15T06:11:39.717Z,101278.72
2024-02-15T06:14:13.957Z,101286.12
2024-02-15T06:16:48.830Z,101286.62
2024-02-15T06:19:23.338Z,101289.74
2024-02-15T06:21:57.758Z,101288.44
2024-02-15T06:24:33.061Z,101297.73
2024-02-15T06:27:08.926Z,101294.57
2024-02-15T06:30:00.111Z,101298.50
2024-02-15T06:32:52.488Z,101300.56
2024-02-15T06:35:44.232Z,101304.39
2024-02-15T06:38:36.078Z,101302.98
2024-02-15T06:41:11.532Z,101304.19
2024-02-15T06:43:45.703Z,101296.81
2024-02-15T06:46:20.811Z,101304.93
2024-02-15T06:48:56.239Z,101308.75
2024-02-15T06:51:30.032Z,101310.06
2024-02-15T06:54:04.676Z,101300.77
2024-02-15T06:56:43.752Z,101307.92
2024-02-15T06:59:20.020Z,101308.30
2024-02-15T07:01:55.107Z,101306.87
2024-02-15T07:04:30.800Z,101313.17
2024-02-15T07:07:05.850Z,101305.67
2024-02-15T07:09:40.615Z,101310.44
2024-02-15T07:12:16.615Z,101305.41
2024-02-15T07:14:51.758Z,101307.55
2024-02-15T07:17:26.158Z,101312.92
2024-02-15T07:20:00.077Z,101311.47
2024-02-15T07:22:35.046Z,101313.47
2024-02-15T07:25:11.754Z,101314.64
2024-02-15T07:27:47.623Z,101308.78
2024-02-15T07:30:26.145Z,101300.27
2024-02-15T07:33:01.576Z,101305.72
2024-02-15T07:35:37.606Z,101306.07
2024-02-15T07:38:12.615Z,101310.57
2024-02-15T07:40:46.587Z,101312.44
2024-02-15T07:43:20.681Z,101305.56
2024-02-15T07:45:54.753Z,101313.64
2024-02-15T07:48:29.446Z,101312.06
2024-02-15T07:51:03.794Z,101318.21
2024-02-15T07:53:39.622Z,101315.77
2024-02-15T07:56:14.617Z,101306.25
2024-02-15T07:58:54.329Z,101310.61
2024-02-15T08:01:32.169Z,101310.78
2024-02-15T08:04:06.449Z,101309.03
2024-02-15T08:06:41.568Z,101308.08
2024-02-15T08:09:19.409Z,101297.59
2024-02-15T08:11:54.232Z,101299.42
2024-02-15T08:14:29.594Z,101308.18
2024-02-15T08:17:04.319Z,101301.13
2024-02-15T08:19:40.547Z,101298.64
2024-02-15T08:22:15.464Z,101304.88
2024-02-15T08:24:49.993Z,101297.81
2024-02-15T08:27:24.530Z,101295.20
2024-02-15T08:29:58.115Z,101293.52
2024-02-15T08:32:32.488Z,101291.02
2024-02-15T08:35:07.360Z,101288.39
2024-02-15T08:37:43.377Z,101295.33
2024-02-15T08:40:20.216Z,101291.84
2024-02-15T08:42:54.730Z,101293.75
2024-02-15T08:45:29.883Z,101293.75
2024-02-15T08:48:06.224Z,101295.53
2024-02-15T08:50:40.373Z,101288.55
2024-02-15T08:53:16.865Z,101291.19
2024-02-15T08:55:50.863Z,101291.01
2024-02-15T08:58:25.517Z,101297.20
2024-02-15T09:00:59.773Z,101300.80
2024-02-15T09:03:33.753Z,101301.70
2024-02-15T09:06:09.117Z,101297.50
2024-02-15T09:08:43.530Z,101290.64
2024-02-15T09:11:18.180Z,101285.61
2024-02-15T09:13:52.999Z,101290.69
2024-02-15T09:16:28.112Z,101299.67
2024-02-15T09:19:03.450Z,101292.64
2024-02-15T09:21:38.410Z,101295.23
2024-02-15T09:24:13.170Z,101288.05
2024-02-15T09:26:47.453Z,101287.28
2024-02-15T09:29:22.387Z,101282.22
2024-02-15T09:31:56.357Z,101282.97
2024-02-15T09:34:30.368Z,101286.48
2024-02-15T09:37:06.367Z,101284.75
2024-02-15T09:39:41.242Z,101286.77
2024-02-15T09:42:15.961Z,101288.31
2024-02-15T09:44:52.642Z,101281.27
2024-02-15T09:47:28.537Z,101274.37
2024-02-15T09:50:04.474Z,101258.52
2024-02-15T09:52:38.552Z,101259.23
2024-02-15T09:55:14.597Z,101259.27
2024-02-15T09:57:49.200Z,101251.36
2024-02-15T10:00:24.973Z,101245.09
2024-02-15T10:03:02.835Z,101246.28
2024-02-15T10:05:37.722Z,101235.86
2024-02-15T10:08:12.433Z,101228.62
2024-02-15T10:10:46.373Z,101216.05
2024-02-15T10:13:25.882Z,101212.27
2024-02-15T10:16:01.433Z,101214.59
2024-02-15T10:18:35.902Z,101219.72
2024-02-15T10:21:12.715Z,101215.74
2024-02-15T10:23:47.322Z,101213.08
2024-02-15T10:26:29.662Z,101209.42
2024-02-15T10:29:13.243Z,101198.80
2024-02-15T10:31:58.155Z,101192.47
2024-02-15T10:34:38.404Z,101190.12
2024-02-15T10:37:20.362Z,101186.28
2024-02-15T10:40:09.463Z,101186.72
2024-02-15T10:42:47.498Z,101192.00
2024-02-15T10:45:23.169Z,101187.15
2024-02-15T10:47:58.724Z,101190.23
2024-02-15T10:50:34.810Z,101185.87
2024-02-15T10:53:25.126Z,101182.81
2024-02-15T10:56:08.548Z,101180.79
2024-02-15T10:58:53.873Z,101182.03
2024-02-15T11:01:30.277Z,101177.34
2024-02-15T11:04:09.811Z,101172.77
2024-02-15T11:06:45.852Z,101173.90
2024-02-15T11:09:23.399Z,101177.30
2024-02-15T11:11:58.501Z,101173.40
2024-02-15T11:14:35.155Z,101173.84
2024-02-15T11:17:11.087Z,101168.16
2024-02-15T11:19:49.517Z,101166.44
2024-02-15T11:22:24.549Z,101174.98
2024-02-15T11:24:59.128Z,101168.77
2024-02-15T11:27:34.372Z,101170.33
2024-02-15T11:30:13.832Z,101173.71
2024-02-15T11:32:51.090Z,101161.78
2024-02-15T11:35:26.858Z,101161.48
2024-02-15T11:38:11.457Z,101168.20
2024-02-15T11:41:11.892Z,101164.41
2024-02-15T11:43:58.796Z,101167.14
2024-02-15T11:46:35.471Z,101157.62
2024-02-15T11:49:10.605Z,101160.72
2024-02-15T11:51:45.247Z,101153.57
2024-02-15T11:54:25.169Z,101160.81
2024-02-15T11:57:11.806Z,101156.12
2024-02-15T12:00:16.543Z,101160.70
2024-02-15T12:03:07.857Z,101158.46
2024-02-15T12:05:59.432Z,101152.75
2024-02-15T12:08:51.388Z,101146.61
2024-02-15T12:11:43.020Z,101136.38
2024-02-15T12:14:36.895Z,101137.02
2024-02-15T12:17:31.034Z,101134.61
2024-02-15T12:20:12.587Z,101140.58
2024-02-15T12:22:51.497Z,101126.44
2024-02-15T12:25:25.777Z,101127.70
2024-02-15T12:28:01.666Z,101127.50
2024-02-15T12:30:39.810Z,101129.98
2024-02-15T12:33:22.191Z,101131.64
2024-02-15T12:36:06.736Z,101134.30
2024-02-15T12:38:42.835Z,101134.30
2024-02-15T12:41:27.631Z,101133.46
2024-02-15T12:44:02.729Z,101133.67
2024-02-15T12:46:37.149Z,101132.66
2024-02-15T12:49:31.829Z,101133.92
2024-02-15T12:52:45.094Z,101128.20
2024-02-15T12:55:20.826Z,101124.70
2024-02-15T12:57:58.334Z,101125.16
2024-02-15T13:00:34.974Z,101129.72
2024-02-15T13:03:12.709Z,101127.86
2024-02-15T13:05:47.433Z,101130.34
2024-02-15T13:08:22.351Z,101130.53
2024-02-15T13:10:57.933Z,101120.88
2024-02-15T13:13:31.861Z,101118.84
2024-02-15T13:16:07.600Z,101119.48
2024-02-15T13:18:42.606Z,101124.42
2024-02-15T13:21:16.493Z,101113.97
2024-02-15T13:23:51.521Z,101118.84
2024-02-15T13:26:26.977Z,101124.17
2024-02-15T13:29:01.425Z,101115.37
2024-02-15T13:31:36.027Z,101117.20
2024-02-15T13:34:11.449Z,101119.68
2024-02-15T13:36:47.249Z,101117.83
2024-02-15T13:39:23.245Z,101116.81
2024-02-15T13:41:57.854Z,101119.30
2024-02-15T13:44:32.253Z,101112.73
2024-02-15T13:47:06.813Z,101122.59
2024-02-15T13:49:41.091Z,101113.75
2024-02-15T13:52:15.641Z,101116.62
2024-02-15T13:54:51.351Z,101116.81
2024-02-15T13:57:25.991Z,101119.68
2024-02-15T14:00:00.416Z,101114.73
2024-02-15T14:02:35.097Z,101117.97
2024-02-15T14:05:10.917Z,101116.70
2024-02-15T14:07:46.439Z,101120.77
2024-02-15T14:10:22.467Z,101118.05
2024-02-15T14:12:59.844Z,101112.89
2024-02-15T14:15:38.698Z,101107.31
2024-02-15T14:18:16.613Z,101117.16
2024-02-15T14:20:52.387Z,101116.70
2024-02-15T14:23:28.765Z,101120.59
2024-02-15T14:26:03.540Z,101124.27
2024-02-15T14:28:40.828Z,101130.62
2024-02-15T14:31:38.197Z,101136.13
2024-02-15T14:34:12.108Z,101132.02
2024-02-15T14:36:46.468Z,101126.86
2024-02-15T14:39:21.083Z,101141.20
2024-02-15T14:41:55.419Z,101136.88
2024-02-15T14:44:29.087Z,101141.58
2024-02-15T14:47:03.842Z,101136.83
2024-02-15T14:49:37.884Z,101135.94
2024-02-15T14:52:13.765Z,101137.66
2024-02-15T14:54:48.684Z,101132.51
2024-02-15T14:57:23.801Z,101140.70
2024-02-15T14:59:58.835Z,101137.20
2024-02-15T15:02:33.087Z,101137.78
2024-02-15T15:05:25.258Z,101131.34
2024-02-15T15:08:17.198Z,101145.03
2024-02-15T15:11:08.688Z,101144.59
2024-02-15T15:13:43.849Z,101144.33
2024-02-15T15:16:22.346Z,101153.06
2024-02-15T15:18:57.483Z,101148.11
2024-02-15T15:21:31.990Z,101149.48
2024-02-15T15:24:06.569Z,101160.30
2024-02-15T15:26:40.491Z,101156.36
2024-02-15T15:29:15.451Z,101166.37
2024-02-15T15:31:48.819Z,101164.08
2024-02-15T15:34:23.793Z,101165.28
2024-02-15T15:36:58.684Z,101165.65
2024-02-15T15:39:35.970Z,101165.00
2024-02-15T15:42:11.514Z,101168.03
2024-02-15T15:44:46.404Z,101170.22
2024-02-15T15:47:21.004Z,101175.09
2024-02-15T15:49:59.865Z,101176.27
2024-02-15T15:52:34.433Z,101177.47
2024-02-15T15:55:12.198Z,101184.17
2024-02-15T15:57:47.723Z,101191.67
2024-02-15T16:00:24.299Z,101191.22
2024-02-15T16:03:03.931Z,101194.41
2024-02-15T16:05:38.684Z,101196.78
2024-02-15T16:08:13.291Z,101198.98
2024-02-15T16:10:46.760Z,101202.17
2024-02-15T16:13:21.504Z,101199.06
2024-02-15T16:15:58.011Z,101203.73
2024-02-15T16:18:32.451Z,101206.91
2024-02-15T16:21:07.722Z,101211.78
2024-02-15T16:23:41.732Z,101216.61
2024-02-15T16:26:15.837Z,101221.47
2024-02-15T16:28:49.773Z,101229.31
2024-02-15T16:31:23.811Z,101227.20
2024-02-15T16:33:58.029Z,101217.23
2024-02-15T16:36:32.347Z,101219.79
2024-02-15T16:39:07.261Z,101224.80
2024-02-15T16:41:42.896Z,101230.47
2024-02-15T16:44:16.578Z,101229.13
2024-02-15T16:46:50.764Z,101232.14
2024-02-15T16:49:25.821Z,101242.27
2024-02-15T16:51:59.579Z,101241.62
2024-02-15T16:54:34.414Z,101243.81
2024-02-15T16:57:15.292Z,101241.50
2024-02-15T16:59:52.666Z,101253.48
2024-02-15T17:02:26.872Z,101254.63
2024-02-15T17:05:02.334Z,101254.98
2024-02-15T17:07:36.636Z,101254.67
2024-02-15T17:10:12.953Z,101257.02
2024-02-15T17:12:47.572Z,101252.05
2024-02-15T17:15:27.636Z,101258.55
2024-02-15T17:18:02.704Z,101259.88
2024-02-15T17:20:37.040Z,101259.38
2024-02-15T17:23:11.392Z,101258.91
2024-02-15T17:25:44.966Z,101254.94
2024-02-15T17:28:19.842Z,101252.78
2024-02-15T17:30:55.761Z,101255.77
2024-02-15T17:33:30.238Z,101257.11
2024-02-15T17:36:04.906Z,101261.77
2024-02-15T17:38:40.518Z,101269.25
2024-02-15T17:41:14.436Z,101266.09
2024-02-15T17:43:50.010Z,101270.08
2024-02-15T17:46:24.912Z,101260.64
2024-02-15T17:49:00.212Z,101271.75
2024-02-15T17:51:37.873Z,101268.44
2024-02-15T17:54:12.897Z,101272.41
2024-02-15T17:56:49.340Z,101277.91
2024-02-15T17:59:24.717Z,101278.91
2024-02-15T18:01:58.804Z,101284.36
2024-02-15T18:04:32.785Z,101274.92
2024-02-15T18:07:06.906Z,101282.04
2024-02-15T18:09:41.647Z,101278.91
2024-02-15T18:12:17.311Z,101279.05
2024-02-15T18:14:52.043Z,101281.89
2024-02-15T18:17:26.010Z,101279.57
2024-02-15T18:20:00.733Z,101283.22
2024-02-15T18:22:34.878Z,101282.55
2024-02-15T18:25:11.390Z,101280.23
2024-02-15T18:27:48.123Z,101282.05
2024-02-15T18:30:31.956Z,101281.37
2024-02-15T18:33:07.552Z,101292.98
2024-02-15T18:35:42.990Z,101290.66
2024-02-15T18:38:18.067Z,101297.95
2024-02-15T18:40:52.898Z,101290.98
2024-02-15T18:43:27.918Z,101291.50
2024-02-15T18:46:02.657Z,101297.13
2024-02-15T18:48:38.499Z,101292.82
2024-02-15T18:51:16.249Z,101297.46
2024-02-15T18:53:50.460Z,101293.97
2024-02-15T18:56:25.960Z,101294.14
2024-02-15T18:59:06.841Z,101290.83
2024-02-15T19:01:41.488Z,101290.31
2024-02-15T19:04:16.341Z,101295.13
2024-02-15T19:06:52.627Z,101292.62
2024-02-15T19:09:26.757Z,101293.61
2024-02-15T19:12:02.745Z,101297.25
2024-02-15T19:14:37.841Z,101300.08
2024-02-15T19:17:12.909Z,101303.73
2024-02-15T19:19:50.619Z,101308.36
2024-02-15T19:22:25.168Z,101306.19
2024-02-15T19:24:59.653Z,101302.86
2024-02-15T19:27:33.817Z,101302.52
2024-02-15T19:30:12.753Z,101302.84
2024-02-15T19:32:46.726Z,101312.11
2024-02-15T19:35:21.046Z,101317.73
2024-02-15T19:37:55.394Z,101320.70
2024-02-15T19:40:30.003Z,101320.98
2024-02-15T19:43:04.082Z,101316.01
2024-02-15T19:45:43.185Z,101315.34
2024-02-15T19:48:18.553Z,101319.16
2024-02-15T19:50:53.068Z,101321.13
2024-02-15T19:53:27.178Z,101323.92
2024-02-15T19:56:01.289Z,101328.55
2024-02-15T19:58:35.605Z,101330.53
2024-02-15T20:01:15.481Z,101329.86
2024-02-15T20:03:49.644Z,101334.48
2024-02-15T20:06:24.786Z,101332.01
2024-02-15T20:08:59.979Z,101334.80
2024-02-15T20:11:35.002Z,101332.33
2024-02-15T20:14:09.625Z,101334.30
2024-02-15T20:16:46.447Z,101336.28
2024-02-15T20:19:20.351Z,101330.45
2024-02-15T20:21:55.343Z,101335.92
2024-02-15T20:24:30.163Z,101333.41
2024-02-15T20:27:04.960Z,101336.23
2024-02-15T20:29:40.522Z,101344.32
2024-02-15T20:32:17.768Z,101345.31
2024-02-15T20:34:51.604Z,101336.69
2024-02-15T20:37:25.789Z,101341.17
2024-02-15T20:39:59.856Z,101342.98
2024-02-15T20:42:33.972Z,101344.80
2024-02-15T20:45:11.527Z,101341.48
2024-02-15T20:47:46.029Z,101341.63
2024-02-15T20:50:20.968Z,101340.14
2024-02-15T20:52:55.630Z,101346.42
2024-02-15T20:55:30.960Z,101341.13
2024-02-15T20:58:06.067Z,101341.27
2024-02-15T21:00:40.785Z,101340.59
2024-02-15T21:03:18.697Z,101335.44
2024-02-15T21:05:53.227Z,101343.55
2024-02-15T21:08:28.964Z,101344.53
2024-02-15T21:11:02.767Z,101337.72
2024-02-15T21:13:37.717Z,101339.69
2024-02-15T21:16:17.527Z,101340.67
2024-02-15T21:18:54.822Z,101340.85
2024-02-15T21:21:29.723Z,101346.28
2024-02-15T21:24:04.720Z,101345.47
2024-02-15T21:26:43.561Z,101349.09
2024-02-15T21:29:18.183Z,101346.59
2024-02-15T21:31:52.799Z,101346.91
2024-02-15T21:34:26.692Z,101351.38
2024-02-15T21:37:00.834Z,101348.06
2024-02-15T21:39:41.245Z,101347.52
2024-02-15T21:42:16.101Z,101352.13
2024-02-15T21:44:50.604Z,101351.32
2024-02-15T21:47:25.193Z,101349.80
2024-02-15T21:50:02.849Z,101350.11
2024-02-15T21:52:39.082Z,101357.23
2024-02-15T21:55:14.181Z,101353.06
2024-02-15T21:57:48.302Z,101354.05
2024-02-15T22:00:23.853Z,101361.30
2024-02-15T22:02:58.326Z,101362.45
2024-02-15T22:05:33.643Z,101356.31
2024-02-15T22:08:09.697Z,101355.50
2024-02-15T22:10:44.251Z,101355.64
2024-02-15T22:13:19.305Z,101367.20
2024-02-15T22:15:53.838Z,101366.52
2024-02-15T22:18:27.654Z,101367.38
2024-02-15T22:21:03.250Z,101369.34
2024-02-15T22:23:37.424Z,101373.95
2024-02-15T22:26:18.464Z,101370.45
2024-02-15T22:28:53.222Z,101374.25
2024-02-15T22:31:27.695Z,101368.58
2024-02-15T22:34:02.028Z,101369.41
2024-02-15T22:36:36.815Z,101366.92
2024-02-15T22:39:11.835Z,101368.58
2024-02-15T22:41:45.409Z,101370.69
2024-02-15T22:44:19.934Z,101362.92
2024-02-15T22:46:55.026Z,101366.38
2024-02-15T22:49:29.790Z,101355.13
2024-02-15T22:52:04.331Z,101368.34
2024-02-15T22:54:41.521Z,101367.66
2024-02-15T22:57:17.579Z,101369.63
2024-02-15T22:59:53.355Z,101372.44
2024-02-15T23:02:28.697Z,101374.23
2024-02-15T23:05:03.783Z,101378.02
2024-02-15T23:07:39.000Z,101374.70
2024-02-15T23:10:14.736Z,101374.02
2024-02-15T23:12:49.070Z,101363.58
2024-02-15T23:15:22.824Z,101373.47
2024-02-15T23:17:57.208Z,101371.67
2024-02-15T23:20:31.706Z,101364.86
2024-02-15T23:23:08.676Z,101365.84
2024-02-15T23:25:43.787Z,101368.65
2024-02-15T23:28:18.274Z,101375.89
2024-02-15T23:30:52.901Z,101377.86
2024-02-15T23:33:27.590Z,101370.23
2024-02-15T23:36:19.695Z,101373.98
2024-02-15T23:39:10.876Z,101382.21
2024-02-15T23:41:44.523Z,101377.91
2024-02-15T23:44:18.242Z,101369.16
2024-02-15T23:46:52.256Z,101379.73
2024-02-15T23:49:26.310Z,101374.58
2024-02-15T23:52:00.848Z,101381.01
2024-02-15T23:54:34.675Z,101374.06
2024-02-15T23:57:09.949Z,101377.52
2024-02-15T23:59:44.576Z,101376.70
